sensor_id;sensor_type;location;lat;lon;timestamp;P1;durP1;ratioP1;P2;durP2;ratioP2
15498;SDS011;7851;52.260;6.030;2023-02-16T00:03:20;39.1;;;28.4;;
15498;SDS011;7851;52.260;6.030;2023-02-16T00:03:20;42.1;;;29.7;;
15498;SDS011;7851;52.260;6.030;2023-02-16T00:03:20;40.6;;;28.2;;
15498;SDS011;7851;52.260;6.030;2023-02-16T00:03:27;40.4;;;29.5;;
15498;SDS011;7851;52.260;6.030;2023-02-16T00:04:27;42.9;;;29;;
15498;SDS011;7851;52.260;6.030;2023-02-16T00:05:27;42.5;;;27.7;;
15498;SDS011;7851;52.260;6.030;2023-02-16T00:06:27;41.4;;;28.5;;
15498;SDS011;7851;52.260;6.030;2023-02-16T00:07:29;41;;;29.3;;
15498;SDS011;7851;52.260;6.030;2023-02-16T00:08:31;42.5;;;27.3;;
15498;SDS011;7851;52.260;6.030;2023-02-16T00:09:31;43;;;28.6;;
15498;SDS011;7851;52.260;6.030;2023-02-16T00:10:32;40.4;;;28.5;;
15498;SDS011;7851;52.260;6.030;2023-02-16T00:11:32;34.9;;;27.5;;
15498;SDS011;7851;52.260;6.030;2023-02-16T00:12:31;37.8;;;28.3;;
15498;SDS011;7851;52.260;6.030;2023-02-16T00:13:31;42.2;;;28.7;;
15498;SDS011;7851;52.260;6.030;2023-02-16T00:14:32;40.6;;;28.2;;
15498;SDS011;7851;52.260;6.030;2023-02-16T00:15:31;43.1;;;29.4;;
15498;SDS011;7851;52.260;6.030;2023-02-16T00:16:31;43.1;;;28.2;;
15498;SDS011;7851;52.260;6.030;2023-02-16T00:17:31;41.1;;;28.7;;
15498;SDS011;7851;52.260;6.030;2023-02-16T00:18:31;42.7;;;29.7;;
15498;SDS011;7851;52.260;6.030;2023-02-16T00:19:33;42.4;;;29.9;;
15498;SDS011;7851;52.260;6.030;2023-02-16T00:20:32;38.5;;;28.9;;
15498;SDS011;7851;52.260;6.030;2023-02-16T00:21:31;41.3;;;29.9;;
15498;SDS011;7851;52.260;6.030;2023-02-16T00:22:31;43.8;;;29;;
15498;SDS011;7851;52.260;6.030;2023-02-16T00:23:34;36.1;;;27;;
15498;SDS011;7851;52.260;6.030;2023-02-16T00:24:34;38.9;;;29.2;;
15498;SDS011;7851;52.260;6.030;2023-02-16T00:25:34;41.8;;;28.5;;
15498;SDS011;7851;52.260;6.030;2023-02-16T00:26:34;49.4;;;30.5;;
15498;SDS011;7851;52.260;6.030;2023-02-16T00:27:34;42.8;;;28.8;;
15498;SDS011;7851;52.260;6.030;2023-02-16T00:28:34;40.6;;;29.6;;
15498;SDS011;7851;52.260;6.030;2023-02-16T00:29:35;42.4;;;29.6;;
15498;SDS011;7851;52.260;6.030;2023-02-16T00:30:34;40.1;;;30.1;;
15498;SDS011;7851;52.260;6.030;2023-02-16T00:31:34;45.3;;;30.1;;
15498;SDS011;7851;52.260;6.030;2023-02-16T00:32:34;44.1;;;29.2;;
15498;SDS011;7851;52.260;6.030;2023-02-16T00:33:34;38.1;;;28.9;;
15498;SDS011;7851;52.260;6.030;2023-02-16T00:34:35;42.4;;;30.2;;
15498;SDS011;7851;52.260;6.030;2023-02-16T00:35:34;41.5;;;28.4;;
15498;SDS011;7851;52.260;6.030;2023-02-16T00:36:34;45.1;;;29.6;;
15498;SDS011;7851;52.260;6.030;2023-02-16T00:37:34;40.2;;;30.1;;
15498;SDS011;7851;52.260;6.030;2023-02-16T00:38:34;38.3;;;29.4;;
15498;SDS011;7851;52.260;6.030;2023-02-16T00:39:34;45.3;;;30.3;;
15498;SDS011;7851;52.260;6.030;2023-02-16T00:40:34;43.1;;;29.8;;
15498;SDS011;7851;52.260;6.030;2023-02-16T00:41:34;41.9;;;30;;
15498;SDS011;7851;52.260;6.030;2023-02-16T00:42:34;41.9;;;29;;
15498;SDS011;7851;52.260;6.030;2023-02-16T00:43:34;37.4;;;29;;
15498;SDS011;7851;52.260;6.030;2023-02-16T00:44:35;44.8;;;29.4;;
15498;SDS011;7851;52.260;6.030;2023-02-16T00:45:35;41.9;;;29.3;;
15498;SDS011;7851;52.260;6.030;2023-02-16T00:46:34;38.7;;;29.7;;
15498;SDS011;7851;52.260;6.030;2023-02-16T00:47:35;39.3;;;29.4;;
15498;SDS011;7851;52.260;6.030;2023-02-16T00:48:35;45.9;;;30.1;;
15498;SDS011;7851;52.260;6.030;2023-02-16T00:49:35;40.3;;;30.1;;
15498;SDS011;7851;52.260;6.030;2023-02-16T00:50:38;40.2;;;29.7;;
15498;SDS011;7851;52.260;6.030;2023-02-16T00:51:38;41.6;;;30.8;;
15498;SDS011;7851;52.260;6.030;2023-02-16T00:52:38;41.8;;;31;;
15498;SDS011;7851;52.260;6.030;2023-02-16T00:53:38;44.5;;;30;;
15498;SDS011;7851;52.260;6.030;2023-02-16T00:54:38;41.8;;;29.7;;
15498;SDS011;7851;52.260;6.030;2023-02-16T00:55:38;45.9;;;29.9;;
15498;SDS011;7851;52.260;6.030;2023-02-16T00:56:38;40.8;;;30.1;;
15498;SDS011;7851;52.260;6.030;2023-02-16T00:57:39;43.7;;;30.9;;
15498;SDS011;7851;52.260;6.030;2023-02-16T00:58:38;48.1;;;31.4;;
15498;SDS011;7851;52.260;6.030;2023-02-16T00:59:38;49.8;;;32.5;;
15498;SDS011;7851;52.260;6.030;2023-02-16T01:00:38;39.4;;;30.8;;
15498;SDS011;7851;52.260;6.030;2023-02-16T01:01:38;40.9;;;31;;
15498;SDS011;7851;52.260;6.030;2023-02-16T01:02:38;43;;;31.6;;
15498;SDS011;7851;52.260;6.030;2023-02-16T01:03:38;41.9;;;30.4;;
15498;SDS011;7851;52.260;6.030;2023-02-16T01:04:38;42.2;;;31.1;;
15498;SDS011;7851;52.260;6.030;2023-02-16T01:05:38;40.6;;;30.6;;
15498;SDS011;7851;52.260;6.030;2023-02-16T01:06:38;42.1;;;30.3;;
15498;SDS011;7851;52.260;6.030;2023-02-16T01:07:38;40.6;;;29.9;;
15498;SDS011;7851;52.260;6.030;2023-02-16T01:08:38;43.5;;;31.5;;
15498;SDS011;7851;52.260;6.030;2023-02-16T01:09:38;43.1;;;30.6;;
15498;SDS011;7851;52.260;6.030;2023-02-16T01:10:38;44.7;;;31.9;;
15498;SDS011;7851;52.260;6.030;2023-02-16T01:11:38;48.3;;;32.6;;
15498;SDS011;7851;52.260;6.030;2023-02-16T01:12:38;46.2;;;31.4;;
15498;SDS011;7851;52.260;6.030;2023-02-16T01:13:39;45;;;30.8;;
15498;SDS011;7851;52.260;6.030;2023-02-16T01:14:38;44.3;;;31.1;;
15498;SDS011;7851;52.260;6.030;2023-02-16T01:15:38;46.1;;;31.3;;
15498;SDS011;7851;52.260;6.030;2023-02-16T01:16:39;46.4;;;32.2;;
15498;SDS011;7851;52.260;6.030;2023-02-16T01:17:38;46.2;;;32;;
15498;SDS011;7851;52.260;6.030;2023-02-16T01:18:38;46.1;;;32.2;;
15498;SDS011;7851;52.260;6.030;2023-02-16T01:19:38;44.6;;;32.1;;
15498;SDS011;7851;52.260;6.030;2023-02-16T01:20:38;50.2;;;32.5;;
15498;SDS011;7851;52.260;6.030;2023-02-16T01:21:38;45.8;;;31.3;;
15498;SDS011;7851;52.260;6.030;2023-02-16T01:22:38;45.2;;;33.1;;
15498;SDS011;7851;52.260;6.030;2023-02-16T01:23:38;43.1;;;31.8;;
15498;SDS011;7851;52.260;6.030;2023-02-16T01:24:38;42.5;;;32;;
15498;SDS011;7851;52.260;6.030;2023-02-16T01:25:38;43.6;;;30.9;;
15498;SDS011;7851;52.260;6.030;2023-02-16T01:26:38;44.3;;;30.7;;
15498;SDS011;7851;52.260;6.030;2023-02-16T01:27:38;43.4;;;31.8;;
15498;SDS011;7851;52.260;6.030;2023-02-16T01:28:38;42.7;;;31.5;;
15498;SDS011;7851;52.260;6.030;2023-02-16T01:29:38;48;;;32.4;;
15498;SDS011;7851;52.260;6.030;2023-02-16T01:30:38;45.3;;;32.3;;
15498;SDS011;7851;52.260;6.030;2023-02-16T01:31:38;47.6;;;32;;
15498;SDS011;7851;52.260;6.030;2023-02-16T01:32:38;44.1;;;31.8;;
15498;SDS011;7851;52.260;6.030;2023-02-16T01:33:39;47.2;;;33.1;;
15498;SDS011;7851;52.260;6.030;2023-02-16T01:34:38;45.4;;;31.3;;
15498;SDS011;7851;52.260;6.030;2023-02-16T01:35:38;45.1;;;32.3;;
15498;SDS011;7851;52.260;6.030;2023-02-16T01:36:41;46.3;;;32.2;;
15498;SDS011;7851;52.260;6.030;2023-02-16T01:37:38;51.1;;;33.6;;
15498;SDS011;7851;52.260;6.030;2023-02-16T01:38:38;48;;;32;;
15498;SDS011;7851;52.260;6.030;2023-02-16T01:39:38;44.9;;;32.1;;
15498;SDS011;7851;52.260;6.030;2023-02-16T01:40:39;48.5;;;32.1;;
15498;SDS011;7851;52.260;6.030;2023-02-16T01:41:43;50.3;;;33.8;;
15498;SDS011;7851;52.260;6.030;2023-02-16T01:42:40;41.8;;;32.3;;
15498;SDS011;7851;52.260;6.030;2023-02-16T01:43:40;44.6;;;31.7;;
15498;SDS011;7851;52.260;6.030;2023-02-16T01:44:40;44;;;32.3;;
15498;SDS011;7851;52.260;6.030;2023-02-16T01:45:39;45.6;;;32.1;;
15498;SDS011;7851;52.260;6.030;2023-02-16T01:46:38;44.4;;;31.9;;
15498;SDS011;7851;52.260;6.030;2023-02-16T01:47:39;43.3;;;32.3;;
15498;SDS011;7851;52.260;6.030;2023-02-16T01:48:38;45.6;;;32.8;;
15498;SDS011;7851;52.260;6.030;2023-02-16T01:49:38;43.1;;;32.6;;
15498;SDS011;7851;52.260;6.030;2023-02-16T01:50:40;45.9;;;32.4;;
15498;SDS011;7851;52.260;6.030;2023-02-16T01:51:40;53.3;;;34.7;;
15498;SDS011;7851;52.260;6.030;2023-02-16T01:52:39;46.3;;;32.9;;
15498;SDS011;7851;52.260;6.030;2023-02-16T01:53:39;44.6;;;31.9;;
15498;SDS011;7851;52.260;6.030;2023-02-16T01:54:39;43.9;;;32.9;;
15498;SDS011;7851;52.260;6.030;2023-02-16T01:55:38;42.8;;;31;;
15498;SDS011;7851;52.260;6.030;2023-02-16T01:56:39;44.9;;;33.1;;
15498;SDS011;7851;52.260;6.030;2023-02-16T01:57:38;44.8;;;33.7;;
15498;SDS011;7851;52.260;6.030;2023-02-16T01:58:38;47.1;;;33.1;;
15498;SDS011;7851;52.260;6.030;2023-02-16T01:59:40;43.5;;;32;;
15498;SDS011;7851;52.260;6.030;2023-02-16T02:01:40;45.1;;;33.2;;
15498;SDS011;7851;52.260;6.030;2023-02-16T02:02:38;44.5;;;32.7;;
15498;SDS011;7851;52.260;6.030;2023-02-16T02:03:38;49.3;;;34.1;;
15498;SDS011;7851;52.260;6.030;2023-02-16T02:04:38;47;;;32.4;;
15498;SDS011;7851;52.260;6.030;2023-02-16T02:05:38;45.8;;;32.7;;
15498;SDS011;7851;52.260;6.030;2023-02-16T02:06:38;43.5;;;32;;
15498;SDS011;7851;52.260;6.030;2023-02-16T02:07:40;48.1;;;34;;
15498;SDS011;7851;52.260;6.030;2023-02-16T02:08:39;47.3;;;33.4;;
15498;SDS011;7851;52.260;6.030;2023-02-16T02:09:39;44;;;32.9;;
15498;SDS011;7851;52.260;6.030;2023-02-16T02:10:40;45.6;;;33.5;;
15498;SDS011;7851;52.260;6.030;2023-02-16T02:11:38;50.2;;;33.9;;
15498;SDS011;7851;52.260;6.030;2023-02-16T02:12:41;47.3;;;33;;
15498;SDS011;7851;52.260;6.030;2023-02-16T02:13:38;44.9;;;32.1;;
15498;SDS011;7851;52.260;6.030;2023-02-16T02:14:38;46;;;34.8;;
15498;SDS011;7851;52.260;6.030;2023-02-16T02:15:38;50;;;35.2;;
15498;SDS011;7851;52.260;6.030;2023-02-16T02:16:38;42.3;;;33;;
15498;SDS011;7851;52.260;6.030;2023-02-16T02:17:38;44.6;;;33.6;;
15498;SDS011;7851;52.260;6.030;2023-02-16T02:18:38;46.9;;;33.5;;
15498;SDS011;7851;52.260;6.030;2023-02-16T02:19:40;53.9;;;33.7;;
15498;SDS011;7851;52.260;6.030;2023-02-16T02:20:41;48;;;34.3;;
15498;SDS011;7851;52.260;6.030;2023-02-16T02:21:44;46.5;;;34.9;;
15498;SDS011;7851;52.260;6.030;2023-02-16T02:22:45;51.8;;;33.7;;
15498;SDS011;7851;52.260;6.030;2023-02-16T02:23:42;49.2;;;32.9;;
15498;SDS011;7851;52.260;6.030;2023-02-16T02:24:44;45.8;;;33.3;;
15498;SDS011;7851;52.260;6.030;2023-02-16T02:25:43;48.8;;;34;;
15498;SDS011;7851;52.260;6.030;2023-02-16T02:26:40;47.6;;;33.7;;
15498;SDS011;7851;52.260;6.030;2023-02-16T02:27:38;45.6;;;33.7;;
15498;SDS011;7851;52.260;6.030;2023-02-16T02:28:38;47;;;33.3;;
15498;SDS011;7851;52.260;6.030;2023-02-16T02:29:45;43.8;;;32.3;;
15498;SDS011;7851;52.260;6.030;2023-02-16T02:30:40;53;;;34.5;;
15498;SDS011;7851;52.260;6.030;2023-02-16T02:31:41;50.1;;;33.9;;
15498;SDS011;7851;52.260;6.030;2023-02-16T02:32:43;48.4;;;33.9;;
15498;SDS011;7851;52.260;6.030;2023-02-16T02:33:41;48.8;;;34.8;;
15498;SDS011;7851;52.260;6.030;2023-02-16T02:34:42;45.4;;;34.3;;
15498;SDS011;7851;52.260;6.030;2023-02-16T02:35:41;44.9;;;33.3;;
15498;SDS011;7851;52.260;6.030;2023-02-16T02:36:39;51.3;;;33.9;;
15498;SDS011;7851;52.260;6.030;2023-02-16T02:37:39;48;;;33.2;;
15498;SDS011;7851;52.260;6.030;2023-02-16T02:38:39;46.2;;;33.8;;
15498;SDS011;7851;52.260;6.030;2023-02-16T02:39:39;51.8;;;34.7;;
15498;SDS011;7851;52.260;6.030;2023-02-16T02:40:40;48.9;;;34.2;;
15498;SDS011;7851;52.260;6.030;2023-02-16T02:41:40;48.1;;;34.7;;
15498;SDS011;7851;52.260;6.030;2023-02-16T02:42:39;51.1;;;34;;
15498;SDS011;7851;52.260;6.030;2023-02-16T02:43:40;46.5;;;32.8;;
15498;SDS011;7851;52.260;6.030;2023-02-16T02:44:39;43.3;;;33.2;;
15498;SDS011;7851;52.260;6.030;2023-02-16T02:45:39;48.1;;;33.3;;
15498;SDS011;7851;52.260;6.030;2023-02-16T02:46:38;45.9;;;32.9;;
15498;SDS011;7851;52.260;6.030;2023-02-16T02:47:38;43.6;;;33.5;;
15498;SDS011;7851;52.260;6.030;2023-02-16T02:48:38;49.3;;;33.2;;
15498;SDS011;7851;52.260;6.030;2023-02-16T02:49:38;47.5;;;33.6;;
15498;SDS011;7851;52.260;6.030;2023-02-16T02:50:40;50.9;;;35.1;;
15498;SDS011;7851;52.260;6.030;2023-02-16T02:51:38;50.6;;;35.3;;
15498;SDS011;7851;52.260;6.030;2023-02-16T02:52:38;49.5;;;32.6;;
15498;SDS011;7851;52.260;6.030;2023-02-16T02:53:38;45.4;;;34.9;;
15498;SDS011;7851;52.260;6.030;2023-02-16T02:54:38;45.9;;;32.4;;
15498;SDS011;7851;52.260;6.030;2023-02-16T02:55:39;48;;;33;;
15498;SDS011;7851;52.260;6.030;2023-02-16T02:56:38;47.8;;;34.5;;
15498;SDS011;7851;52.260;6.030;2023-02-16T02:57:38;44.9;;;32.7;;
15498;SDS011;7851;52.260;6.030;2023-02-16T02:58:38;50.7;;;34.4;;
15498;SDS011;7851;52.260;6.030;2023-02-16T02:59:38;43.6;;;32.4;;
15498;SDS011;7851;52.260;6.030;2023-02-16T03:00:38;46.8;;;32.7;;
15498;SDS011;7851;52.260;6.030;2023-02-16T03:01:39;48.8;;;33.5;;
15498;SDS011;7851;52.260;6.030;2023-02-16T03:02:38;48.1;;;33.8;;
15498;SDS011;7851;52.260;6.030;2023-02-16T03:03:40;44.5;;;33.1;;
15498;SDS011;7851;52.260;6.030;2023-02-16T03:04:38;45.6;;;33.1;;
15498;SDS011;7851;52.260;6.030;2023-02-16T03:05:38;45;;;32;;
15498;SDS011;7851;52.260;6.030;2023-02-16T03:06:39;50.6;;;34;;
15498;SDS011;7851;52.260;6.030;2023-02-16T03:07:38;47.2;;;34.1;;
15498;SDS011;7851;52.260;6.030;2023-02-16T03:08:38;48.4;;;34.3;;
15498;SDS011;7851;52.260;6.030;2023-02-16T03:09:38;51;;;33.4;;
15498;SDS011;7851;52.260;6.030;2023-02-16T03:10:38;48.2;;;33;;
15498;SDS011;7851;52.260;6.030;2023-02-16T03:11:38;46;;;33.8;;
15498;SDS011;7851;52.260;6.030;2023-02-16T03:12:38;52.6;;;35.5;;
15498;SDS011;7851;52.260;6.030;2023-02-16T03:13:38;44.6;;;32.9;;
15498;SDS011;7851;52.260;6.030;2023-02-16T03:14:39;41.9;;;31.8;;
15498;SDS011;7851;52.260;6.030;2023-02-16T03:15:38;45.4;;;33.8;;
15498;SDS011;7851;52.260;6.030;2023-02-16T03:16:39;41.8;;;32.6;;
15498;SDS011;7851;52.260;6.030;2023-02-16T03:17:38;43.7;;;32.8;;
15498;SDS011;7851;52.260;6.030;2023-02-16T03:18:38;53.4;;;33.4;;
15498;SDS011;7851;52.260;6.030;2023-02-16T03:19:38;48.1;;;34.3;;
15498;SDS011;7851;52.260;6.030;2023-02-16T03:20:38;47.5;;;33.2;;
15498;SDS011;7851;52.260;6.030;2023-02-16T03:21:38;45.8;;;33.2;;
15498;SDS011;7851;52.260;6.030;2023-02-16T03:22:39;42.4;;;32.3;;
15498;SDS011;7851;52.260;6.030;2023-02-16T03:23:38;44.6;;;32.8;;
15498;SDS011;7851;52.260;6.030;2023-02-16T03:24:38;51;;;33.3;;
15498;SDS011;7851;52.260;6.030;2023-02-16T03:25:38;48.7;;;33.6;;
15498;SDS011;7851;52.260;6.030;2023-02-16T03:26:38;51.9;;;34;;
15498;SDS011;7851;52.260;6.030;2023-02-16T03:27:38;43.6;;;32.3;;
15498;SDS011;7851;52.260;6.030;2023-02-16T03:28:39;46.9;;;34.1;;
15498;SDS011;7851;52.260;6.030;2023-02-16T03:29:38;45.9;;;33.7;;
15498;SDS011;7851;52.260;6.030;2023-02-16T03:30:38;42.9;;;32.7;;
15498;SDS011;7851;52.260;6.030;2023-02-16T03:31:38;43.8;;;33.3;;
15498;SDS011;7851;52.260;6.030;2023-02-16T03:32:38;48.1;;;32.3;;
15498;SDS011;7851;52.260;6.030;2023-02-16T03:33:38;48.5;;;32.9;;
15498;SDS011;7851;52.260;6.030;2023-02-16T03:34:38;44.1;;;32.5;;
15498;SDS011;7851;52.260;6.030;2023-02-16T03:35:38;48.7;;;35;;
15498;SDS011;7851;52.260;6.030;2023-02-16T03:36:38;40.3;;;32.6;;
15498;SDS011;7851;52.260;6.030;2023-02-16T03:37:38;52.3;;;33;;
15498;SDS011;7851;52.260;6.030;2023-02-16T03:38:38;45.2;;;32.3;;
15498;SDS011;7851;52.260;6.030;2023-02-16T03:39:38;44.8;;;32.9;;
15498;SDS011;7851;52.260;6.030;2023-02-16T03:40:38;47.4;;;33;;
15498;SDS011;7851;52.260;6.030;2023-02-16T03:41:39;44.4;;;32;;
15498;SDS011;7851;52.260;6.030;2023-02-16T03:42:38;47.4;;;33.3;;
15498;SDS011;7851;52.260;6.030;2023-02-16T03:43:38;43.7;;;33.3;;
15498;SDS011;7851;52.260;6.030;2023-02-16T03:44:38;45.9;;;33.5;;
15498;SDS011;7851;52.260;6.030;2023-02-16T03:45:38;43.2;;;32.4;;
15498;SDS011;7851;52.260;6.030;2023-02-16T03:46:38;45.2;;;33.1;;
15498;SDS011;7851;52.260;6.030;2023-02-16T03:47:38;44.8;;;32.4;;
15498;SDS011;7851;52.260;6.030;2023-02-16T03:48:38;44.7;;;33.2;;
15498;SDS011;7851;52.260;6.030;2023-02-16T03:49:38;43.8;;;32.7;;
15498;SDS011;7851;52.260;6.030;2023-02-16T03:50:38;45.6;;;32.1;;
15498;SDS011;7851;52.260;6.030;2023-02-16T03:51:38;46.1;;;34.6;;
15498;SDS011;7851;52.260;6.030;2023-02-16T03:52:38;42.4;;;32.6;;
15498;SDS011;7851;52.260;6.030;2023-02-16T03:53:38;45.2;;;31.5;;
15498;SDS011;7851;52.260;6.030;2023-02-16T03:54:38;42.6;;;32.2;;
15498;SDS011;7851;52.260;6.030;2023-02-16T03:55:38;48.5;;;33.4;;
15498;SDS011;7851;52.260;6.030;2023-02-16T03:56:38;41.3;;;31.5;;
15498;SDS011;7851;52.260;6.030;2023-02-16T03:57:38;44.3;;;33.3;;
15498;SDS011;7851;52.260;6.030;2023-02-16T03:58:38;44.4;;;31.4;;
15498;SDS011;7851;52.260;6.030;2023-02-16T03:59:38;44.6;;;31.6;;
15498;SDS011;7851;52.260;6.030;2023-02-16T04:00:38;48.3;;;33.9;;
15498;SDS011;7851;52.260;6.030;2023-02-16T04:01:38;43.9;;;33.2;;
15498;SDS011;7851;52.260;6.030;2023-02-16T04:02:38;45;;;32.3;;
15498;SDS011;7851;52.260;6.030;2023-02-16T04:03:38;51;;;32.9;;
15498;SDS011;7851;52.260;6.030;2023-02-16T04:04:38;44.1;;;32.3;;
15498;SDS011;7851;52.260;6.030;2023-02-16T04:05:38;42.2;;;32.5;;
15498;SDS011;7851;52.260;6.030;2023-02-16T04:06:38;46.1;;;32.1;;
15498;SDS011;7851;52.260;6.030;2023-02-16T04:07:38;41.8;;;30.7;;
15498;SDS011;7851;52.260;6.030;2023-02-16T04:08:38;41;;;31.6;;
15498;SDS011;7851;52.260;6.030;2023-02-16T04:09:38;44.5;;;32.1;;
15498;SDS011;7851;52.260;6.030;2023-02-16T04:10:38;43.6;;;31.7;;
15498;SDS011;7851;52.260;6.030;2023-02-16T04:11:38;44;;;33.2;;
15498;SDS011;7851;52.260;6.030;2023-02-16T04:12:38;40.3;;;31;;
15498;SDS011;7851;52.260;6.030;2023-02-16T04:13:38;44.6;;;32.6;;
15498;SDS011;7851;52.260;6.030;2023-02-16T04:14:38;48.1;;;33;;
15498;SDS011;7851;52.260;6.030;2023-02-16T04:15:38;46.3;;;32;;
15498;SDS011;7851;52.260;6.030;2023-02-16T04:16:38;42.5;;;33;;
15498;SDS011;7851;52.260;6.030;2023-02-16T04:17:38;43.1;;;31.9;;
15498;SDS011;7851;52.260;6.030;2023-02-16T04:18:38;39.3;;;31.3;;
15498;SDS011;7851;52.260;6.030;2023-02-16T04:19:38;45.2;;;31.9;;
15498;SDS011;7851;52.260;6.030;2023-02-16T04:20:38;40.3;;;31.3;;
15498;SDS011;7851;52.260;6.030;2023-02-16T04:21:38;46;;;31.6;;
15498;SDS011;7851;52.260;6.030;2023-02-16T04:22:38;43.7;;;31.8;;
15498;SDS011;7851;52.260;6.030;2023-02-16T04:23:38;44.6;;;32.7;;
15498;SDS011;7851;52.260;6.030;2023-02-16T04:24:38;45.5;;;32.8;;
15498;SDS011;7851;52.260;6.030;2023-02-16T04:25:52;36.4;;;25;;
15498;SDS011;7851;52.260;6.030;2023-02-16T04:26:52;44;;;31.2;;
15498;SDS011;7851;52.260;6.030;2023-02-16T04:27:52;46.3;;;32.3;;
15498;SDS011;7851;52.260;6.030;2023-02-16T04:28:52;48.8;;;32.5;;
15498;SDS011;7851;52.260;6.030;2023-02-16T04:29:52;46.3;;;34.3;;
15498;SDS011;7851;52.260;6.030;2023-02-16T04:30:52;45.8;;;33;;
15498;SDS011;7851;52.260;6.030;2023-02-16T04:31:52;46.4;;;32.3;;
15498;SDS011;7851;52.260;6.030;2023-02-16T04:32:52;47;;;32.5;;
15498;SDS011;7851;52.260;6.030;2023-02-16T04:33:52;45.7;;;32.1;;
15498;SDS011;7851;52.260;6.030;2023-02-16T04:34:52;40.6;;;30.8;;
15498;SDS011;7851;52.260;6.030;2023-02-16T04:35:52;43.5;;;33;;
15498;SDS011;7851;52.260;6.030;2023-02-16T04:36:52;44.8;;;32.8;;
15498;SDS011;7851;52.260;6.030;2023-02-16T04:37:52;40.6;;;30.1;;
15498;SDS011;7851;52.260;6.030;2023-02-16T04:38:52;44.8;;;30.5;;
15498;SDS011;7851;52.260;6.030;2023-02-16T04:39:52;45.2;;;32.5;;
15498;SDS011;7851;52.260;6.030;2023-02-16T04:40:52;41.8;;;30.3;;
15498;SDS011;7851;52.260;6.030;2023-02-16T04:41:52;45.5;;;31.5;;
15498;SDS011;7851;52.260;6.030;2023-02-16T04:42:52;41.9;;;30.8;;
15498;SDS011;7851;52.260;6.030;2023-02-16T04:43:52;43.6;;;32.1;;
15498;SDS011;7851;52.260;6.030;2023-02-16T04:44:52;42;;;31.8;;
15498;SDS011;7851;52.260;6.030;2023-02-16T04:45:52;43.4;;;31.8;;
15498;SDS011;7851;52.260;6.030;2023-02-16T04:46:52;45.9;;;32.5;;
15498;SDS011;7851;52.260;6.030;2023-02-16T04:47:52;42;;;31.8;;
15498;SDS011;7851;52.260;6.030;2023-02-16T04:48:52;43.7;;;31.4;;
15498;SDS011;7851;52.260;6.030;2023-02-16T04:49:52;42.9;;;32.2;;
15498;SDS011;7851;52.260;6.030;2023-02-16T04:50:52;46.8;;;31.8;;
15498;SDS011;7851;52.260;6.030;2023-02-16T04:51:52;43.1;;;30.8;;
15498;SDS011;7851;52.260;6.030;2023-02-16T04:52:52;46.2;;;32.9;;
15498;SDS011;7851;52.260;6.030;2023-02-16T04:53:52;46.2;;;33.2;;
15498;SDS011;7851;52.260;6.030;2023-02-16T04:54:52;44.7;;;31.7;;
15498;SDS011;7851;52.260;6.030;2023-02-16T04:55:52;42.3;;;31.1;;
15498;SDS011;7851;52.260;6.030;2023-02-16T04:56:52;40;;;30.4;;
15498;SDS011;7851;52.260;6.030;2023-02-16T04:57:52;42.6;;;31.9;;
15498;SDS011;7851;52.260;6.030;2023-02-16T04:58:52;49.7;;;32.1;;
15498;SDS011;7851;52.260;6.030;2023-02-16T04:59:52;43.3;;;31.4;;
15498;SDS011;7851;52.260;6.030;2023-02-16T05:00:52;42.2;;;32.4;;
15498;SDS011;7851;52.260;6.030;2023-02-16T05:01:52;43.9;;;31.5;;
15498;SDS011;7851;52.260;6.030;2023-02-16T05:02:52;44.2;;;30.9;;
15498;SDS011;7851;52.260;6.030;2023-02-16T05:03:52;44.8;;;31.3;;
15498;SDS011;7851;52.260;6.030;2023-02-16T05:04:52;42.7;;;31.9;;
15498;SDS011;7851;52.260;6.030;2023-02-16T05:05:52;44.7;;;32.1;;
15498;SDS011;7851;52.260;6.030;2023-02-16T05:06:52;42.6;;;30.1;;
15498;SDS011;7851;52.260;6.030;2023-02-16T05:07:52;42;;;30.5;;
15498;SDS011;7851;52.260;6.030;2023-02-16T05:08:52;46.5;;;31.8;;
15498;SDS011;7851;52.260;6.030;2023-02-16T05:09:52;42.7;;;30.1;;
15498;SDS011;7851;52.260;6.030;2023-02-16T05:10:52;41.7;;;31.5;;
15498;SDS011;7851;52.260;6.030;2023-02-16T05:11:52;39.8;;;29.6;;
15498;SDS011;7851;52.260;6.030;2023-02-16T05:12:52;42.4;;;32.4;;
15498;SDS011;7851;52.260;6.030;2023-02-16T05:13:52;38.9;;;30;;
15498;SDS011;7851;52.260;6.030;2023-02-16T05:14:52;45.7;;;31.6;;
15498;SDS011;7851;52.260;6.030;2023-02-16T05:15:52;43.9;;;30.3;;
15498;SDS011;7851;52.260;6.030;2023-02-16T05:16:52;45.4;;;31.2;;
15498;SDS011;7851;52.260;6.030;2023-02-16T05:17:52;41.5;;;29.8;;
15498;SDS011;7851;52.260;6.030;2023-02-16T05:18:52;42.6;;;31.7;;
15498;SDS011;7851;52.260;6.030;2023-02-16T05:19:53;44.8;;;30.9;;
15498;SDS011;7851;52.260;6.030;2023-02-16T05:20:52;40.3;;;31;;
15498;SDS011;7851;52.260;6.030;2023-02-16T05:21:52;40.1;;;30.3;;
15498;SDS011;7851;52.260;6.030;2023-02-16T05:22:52;41.4;;;30.7;;
15498;SDS011;7851;52.260;6.030;2023-02-16T05:23:52;43.1;;;31.5;;
15498;SDS011;7851;52.260;6.030;2023-02-16T05:24:52;46.8;;;32.7;;
15498;SDS011;7851;52.260;6.030;2023-02-16T05:25:52;46.8;;;32.9;;
15498;SDS011;7851;52.260;6.030;2023-02-16T05:26:52;44;;;32.6;;
15498;SDS011;7851;52.260;6.030;2023-02-16T05:27:52;41.8;;;32.2;;
15498;SDS011;7851;52.260;6.030;2023-02-16T05:28:52;45.5;;;31.4;;
15498;SDS011;7851;52.260;6.030;2023-02-16T05:29:52;43.5;;;31.8;;
15498;SDS011;7851;52.260;6.030;2023-02-16T05:30:52;36.7;;;29.4;;
15498;SDS011;7851;52.260;6.030;2023-02-16T05:31:52;43.6;;;31.4;;
15498;SDS011;7851;52.260;6.030;2023-02-16T05:32:52;43.5;;;32.2;;
15498;SDS011;7851;52.260;6.030;2023-02-16T05:33:52;39.6;;;30.7;;
15498;SDS011;7851;52.260;6.030;2023-02-16T05:34:52;41.1;;;31.8;;
15498;SDS011;7851;52.260;6.030;2023-02-16T05:35:52;46.9;;;33.3;;
15498;SDS011;7851;52.260;6.030;2023-02-16T05:36:52;43.2;;;32.2;;
15498;SDS011;7851;52.260;6.030;2023-02-16T05:37:52;47;;;31.8;;
15498;SDS011;7851;52.260;6.030;2023-02-16T05:38:52;42.1;;;32;;
15498;SDS011;7851;52.260;6.030;2023-02-16T05:39:52;49.4;;;33.9;;
15498;SDS011;7851;52.260;6.030;2023-02-16T05:40:52;46.5;;;34;;
15498;SDS011;7851;52.260;6.030;2023-02-16T05:41:52;44.6;;;33.2;;
15498;SDS011;7851;52.260;6.030;2023-02-16T05:42:52;46.2;;;33.8;;
15498;SDS011;7851;52.260;6.030;2023-02-16T05:43:52;46.5;;;33.1;;
15498;SDS011;7851;52.260;6.030;2023-02-16T05:44:52;42.2;;;31.3;;
15498;SDS011;7851;52.260;6.030;2023-02-16T05:45:52;46.6;;;32.4;;
15498;SDS011;7851;52.260;6.030;2023-02-16T05:46:52;41.5;;;32;;
15498;SDS011;7851;52.260;6.030;2023-02-16T05:47:52;43.3;;;31.9;;
15498;SDS011;7851;52.260;6.030;2023-02-16T05:48:52;44.9;;;32.3;;
15498;SDS011;7851;52.260;6.030;2023-02-16T05:49:52;48.9;;;33.5;;
15498;SDS011;7851;52.260;6.030;2023-02-16T05:50:52;46.4;;;33;;
15498;SDS011;7851;52.260;6.030;2023-02-16T05:51:52;49.3;;;32.4;;
15498;SDS011;7851;52.260;6.030;2023-02-16T05:53:03;35;;;25;;
15498;SDS011;7851;52.260;6.030;2023-02-16T05:54:04;44.9;;;33;;
15498;SDS011;7851;52.260;6.030;2023-02-16T05:55:03;44.1;;;32.8;;
15498;SDS011;7851;52.260;6.030;2023-02-16T05:56:04;43.9;;;32.5;;
15498;SDS011;7851;52.260;6.030;2023-02-16T05:57:03;46.7;;;34;;
15498;SDS011;7851;52.260;6.030;2023-02-16T05:58:03;50.3;;;32.5;;
15498;SDS011;7851;52.260;6.030;2023-02-16T05:59:03;44.7;;;31.5;;
15498;SDS011;7851;52.260;6.030;2023-02-16T06:00:05;39.8;;;31.9;;
15498;SDS011;7851;52.260;6.030;2023-02-16T06:01:03;47.2;;;33.7;;
15498;SDS011;7851;52.260;6.030;2023-02-16T06:02:03;46.8;;;32.8;;
15498;SDS011;7851;52.260;6.030;2023-02-16T06:03:03;43.9;;;32.9;;
15498;SDS011;7851;52.260;6.030;2023-02-16T06:04:03;44.6;;;32.8;;
15498;SDS011;7851;52.260;6.030;2023-02-16T06:05:03;43.7;;;32.3;;
15498;SDS011;7851;52.260;6.030;2023-02-16T06:06:04;44.5;;;32.1;;
15498;SDS011;7851;52.260;6.030;2023-02-16T06:07:03;45.5;;;33.6;;
15498;SDS011;7851;52.260;6.030;2023-02-16T06:08:03;44.1;;;33.8;;
15498;SDS011;7851;52.260;6.030;2023-02-16T06:09:04;49.1;;;34.2;;
15498;SDS011;7851;52.260;6.030;2023-02-16T06:10:04;42.5;;;31.5;;
15498;SDS011;7851;52.260;6.030;2023-02-16T06:11:04;45.4;;;31.9;;